Accueil
METAR-TAF:

METAR-TAF

Aéroports :

Madera Municipal Airport

Madera, Californie, États-Unis

latitude: 36-59-12N, longitude: 120-06-39W, altitude: 77 m

Observation

Le bulletin a été fait il y a 24 minutes, à 22:53 UTC
Vent 8 kt de est/sud-est
Température 17°C
Humidité 45%
Pression 1000 hPa
Visibilité: 16.1 km
Ciel clair

METAR: KMAE 202253Z AUTO 12008KT 10SM CLR 17/05 A2952 RMK AO2 SLP996 T01670050

Heure: 15:17 (23:17 UTC)


TAF: absent

Observations et prévisions météorologiques de plus de 4000 aéroports (messages METAR et TAF).

Les stations disponibles sont représentées par des disques jaunes et rouges sur la carte.

Passer la souris dessus pour voir le nom de la station.

Cliquer dessus pour voir les observations et prévisions météorologiques.

Pour changer de carte: cliquez sur les boutons verts avec une croix noire pour zoomer, sur le bouton vert avec un tiret pour effectuer un zoom arrière, ou sur les flèches vertes pour les cartes adjacentes.


METAR-TAF: